sensor_id;sensor_type;location;lat;lon;timestamp;P1;durP1;ratioP1;P2;durP2;ratioP2
25962;SDS011;13760;52.588;13.406;2022-11-24T00:01:42;220.70;;;77.80;;
25962;SDS011;13760;52.588;13.406;2022-11-24T00:04:10;229.43;;;78.32;;
25962;SDS011;13760;52.588;13.406;2022-11-24T00:06:36;233.98;;;79.78;;
25962;SDS011;13760;52.588;13.406;2022-11-24T00:09:02;237.25;;;78.82;;
25962;SDS011;13760;52.588;13.406;2022-11-24T00:11:30;214.00;;;75.93;;
25962;SDS011;13760;52.588;13.406;2022-11-24T00:13:57;197.40;;;77.25;;
25962;SDS011;13760;52.588;13.406;2022-11-24T00:16:24;219.25;;;79.32;;
25962;SDS011;13760;52.588;13.406;2022-11-24T00:18:52;218.00;;;77.78;;
25962;SDS011;13760;52.588;13.406;2022-11-24T00:21:19;219.82;;;77.85;;
25962;SDS011;13760;52.588;13.406;2022-11-24T00:23:46;236.98;;;78.72;;
25962;SDS011;13760;52.588;13.406;2022-11-24T00:26:13;201.48;;;74.15;;
25962;SDS011;13760;52.588;13.406;2022-11-24T00:28:59;202.00;;;74.88;;
25962;SDS011;13760;52.588;13.406;2022-11-24T00:33:53;220.52;;;77.03;;
25962;SDS011;13760;52.588;13.406;2022-11-24T00:36:21;226.45;;;79.55;;
25962;SDS011;13760;52.588;13.406;2022-11-24T00:38:51;210.32;;;76.90;;
25962;SDS011;13760;52.588;13.406;2022-11-24T00:41:19;196.23;;;72.78;;
25962;SDS011;13760;52.588;13.406;2022-11-24T00:43:45;194.30;;;73.00;;
25962;SDS011;13760;52.588;13.406;2022-11-24T00:46:10;201.10;;;75.30;;
25962;SDS011;13760;52.588;13.406;2022-11-24T00:48:36;193.75;;;73.60;;
25962;SDS011;13760;52.588;13.406;2022-11-24T00:51:05;190.15;;;73.00;;
25962;SDS011;13760;52.588;13.406;2022-11-24T00:53:33;191.18;;;72.38;;
25962;SDS011;13760;52.588;13.406;2022-11-24T00:55:59;195.27;;;72.63;;
25962;SDS011;13760;52.588;13.406;2022-11-24T00:58:27;191.38;;;73.70;;
25962;SDS011;13760;52.588;13.406;2022-11-24T01:00:53;189.43;;;72.53;;
25962;SDS011;13760;52.588;13.406;2022-11-24T01:03:20;200.95;;;76.32;;
25962;SDS011;13760;52.588;13.406;2022-11-24T01:05:46;208.13;;;76.10;;
25962;SDS011;13760;52.588;13.406;2022-11-24T01:08:15;192.20;;;73.32;;
25962;SDS011;13760;52.588;13.406;2022-11-24T01:10:46;199.50;;;73.35;;
25962;SDS011;13760;52.588;13.406;2022-11-24T01:13:12;191.57;;;74.75;;
25962;SDS011;13760;52.588;13.406;2022-11-24T01:15:38;200.25;;;73.95;;
25962;SDS011;13760;52.588;13.406;2022-11-24T01:18:04;192.65;;;71.70;;
25962;SDS011;13760;52.588;13.406;2022-11-24T01:20:30;189.27;;;71.03;;
25962;SDS011;13760;52.588;13.406;2022-11-24T01:22:56;193.95;;;73.40;;
25962;SDS011;13760;52.588;13.406;2022-11-24T01:25:24;201.05;;;74.75;;
25962;SDS011;13760;52.588;13.406;2022-11-24T01:27:49;209.65;;;73.55;;
25962;SDS011;13760;52.588;13.406;2022-11-24T01:30:15;194.95;;;71.30;;
25962;SDS011;13760;52.588;13.406;2022-11-24T01:32:41;188.80;;;71.18;;
25962;SDS011;13760;52.588;13.406;2022-11-24T01:35:07;181.60;;;68.28;;
25962;SDS011;13760;52.588;13.406;2022-11-24T01:37:33;204.77;;;74.03;;
25962;SDS011;13760;52.588;13.406;2022-11-24T01:39:59;226.25;;;72.70;;
25962;SDS011;13760;52.588;13.406;2022-11-24T01:42:24;196.50;;;72.68;;
25962;SDS011;13760;52.588;13.406;2022-11-24T01:44:52;181.57;;;72.80;;
25962;SDS011;13760;52.588;13.406;2022-11-24T01:47:53;187.65;;;70.03;;
25962;SDS011;13760;52.588;13.406;2022-11-24T01:50:20;198.60;;;71.95;;
25962;SDS011;13760;52.588;13.406;2022-11-24T01:52:48;235.45;;;75.45;;
25962;SDS011;13760;52.588;13.406;2022-11-24T01:55:25;234.27;;;70.72;;
25962;SDS011;13760;52.588;13.406;2022-11-24T01:57:56;206.80;;;72.22;;
25962;SDS011;13760;52.588;13.406;2022-11-24T02:00:29;224.07;;;68.43;;
25962;SDS011;13760;52.588;13.406;2022-11-24T02:02:55;226.63;;;73.45;;
25962;SDS011;13760;52.588;13.406;2022-11-24T02:05:25;190.27;;;71.40;;
25962;SDS011;13760;52.588;13.406;2022-11-24T02:07:54;208.65;;;75.25;;
25962;SDS011;13760;52.588;13.406;2022-11-24T02:10:23;203.55;;;73.78;;
25962;SDS011;13760;52.588;13.406;2022-11-24T02:12:49;225.88;;;71.03;;
25962;SDS011;13760;52.588;13.406;2022-11-24T02:15:18;204.38;;;72.25;;
25962;SDS011;13760;52.588;13.406;2022-11-24T02:17:44;178.25;;;68.93;;
25962;SDS011;13760;52.588;13.406;2022-11-24T02:20:10;181.13;;;67.75;;
25962;SDS011;13760;52.588;13.406;2022-11-24T02:27:51;177.07;;;64.18;;
25962;SDS011;13760;52.588;13.406;2022-11-24T02:30:17;174.77;;;65.78;;
25962;SDS011;13760;52.588;13.406;2022-11-24T02:32:43;200.32;;;70.25;;
25962;SDS011;13760;52.588;13.406;2022-11-24T02:35:09;185.38;;;66.70;;
25962;SDS011;13760;52.588;13.406;2022-11-24T02:37:35;193.93;;;69.15;;
25962;SDS011;13760;52.588;13.406;2022-11-24T02:40:01;176.00;;;66.53;;
25962;SDS011;13760;52.588;13.406;2022-11-24T02:42:28;167.93;;;65.15;;
25962;SDS011;13760;52.588;13.406;2022-11-24T02:44:59;183.45;;;65.93;;
25962;SDS011;13760;52.588;13.406;2022-11-24T02:47:25;170.95;;;62.67;;
25962;SDS011;13760;52.588;13.406;2022-11-24T02:49:51;186.20;;;64.38;;
25962;SDS011;13760;52.588;13.406;2022-11-24T02:52:17;152.35;;;63.38;;
25962;SDS011;13760;52.588;13.406;2022-11-24T02:54:43;175.15;;;65.60;;
25962;SDS011;13760;52.588;13.406;2022-11-24T02:57:09;186.15;;;63.90;;
25962;SDS011;13760;52.588;13.406;2022-11-24T02:59:35;158.02;;;63.22;;
25962;SDS011;13760;52.588;13.406;2022-11-24T03:02:01;188.20;;;62.97;;
25962;SDS011;13760;52.588;13.406;2022-11-24T03:04:26;166.38;;;60.25;;
25962;SDS011;13760;52.588;13.406;2022-11-24T03:06:52;194.07;;;62.97;;
25962;SDS011;13760;52.588;13.406;2022-11-24T03:09:18;173.63;;;61.03;;
25962;SDS011;13760;52.588;13.406;2022-11-24T03:11:44;172.25;;;59.85;;
25962;SDS011;13760;52.588;13.406;2022-11-24T03:14:09;157.48;;;57.25;;
25962;SDS011;13760;52.588;13.406;2022-11-24T03:16:35;182.48;;;62.35;;
25962;SDS011;13760;52.588;13.406;2022-11-24T03:19:00;184.25;;;62.83;;
25962;SDS011;13760;52.588;13.406;2022-11-24T03:21:26;153.32;;;58.05;;
25962;SDS011;13760;52.588;13.406;2022-11-24T03:23:52;189.63;;;64.00;;
25962;SDS011;13760;52.588;13.406;2022-11-24T03:26:18;174.52;;;61.97;;
25962;SDS011;13760;52.588;13.406;2022-11-24T03:28:45;191.52;;;64.38;;
25962;SDS011;13760;52.588;13.406;2022-11-24T03:31:11;178.05;;;62.28;;
25962;SDS011;13760;52.588;13.406;2022-11-24T03:33:37;180.45;;;62.83;;
25962;SDS011;13760;52.588;13.406;2022-11-24T03:36:03;171.23;;;60.55;;
25962;SDS011;13760;52.588;13.406;2022-11-24T03:38:30;173.75;;;59.53;;
25962;SDS011;13760;52.588;13.406;2022-11-24T03:40:55;155.13;;;56.80;;
25962;SDS011;13760;52.588;13.406;2022-11-24T03:43:21;160.68;;;56.90;;
25962;SDS011;13760;52.588;13.406;2022-11-24T03:45:47;180.07;;;58.22;;
25962;SDS011;13760;52.588;13.406;2022-11-24T03:48:16;177.43;;;57.92;;
25962;SDS011;13760;52.588;13.406;2022-11-24T03:50:51;168.07;;;58.17;;
25962;SDS011;13760;52.588;13.406;2022-11-24T03:53:21;160.05;;;58.08;;
25962;SDS011;13760;52.588;13.406;2022-11-24T03:55:47;159.45;;;57.83;;
25962;SDS011;13760;52.588;13.406;2022-11-24T03:58:13;159.60;;;58.03;;
25962;SDS011;13760;52.588;13.406;2022-11-24T04:00:39;142.45;;;56.75;;
25962;SDS011;13760;52.588;13.406;2022-11-24T04:03:04;169.88;;;58.03;;
25962;SDS011;13760;52.588;13.406;2022-11-24T04:05:30;164.55;;;58.28;;
25962;SDS011;13760;52.588;13.406;2022-11-24T04:08:00;148.65;;;55.33;;
25962;SDS011;13760;52.588;13.406;2022-11-24T04:10:27;180.90;;;55.95;;
25962;SDS011;13760;52.588;13.406;2022-11-24T04:12:54;161.77;;;52.78;;
25962;SDS011;13760;52.588;13.406;2022-11-24T04:15:19;153.65;;;54.90;;
25962;SDS011;13760;52.588;13.406;2022-11-24T04:17:46;156.23;;;56.42;;
25962;SDS011;13760;52.588;13.406;2022-11-24T04:20:12;146.40;;;53.78;;
25962;SDS011;13760;52.588;13.406;2022-11-24T04:22:38;159.00;;;54.40;;
25962;SDS011;13760;52.588;13.406;2022-11-24T04:25:07;178.98;;;54.95;;
25962;SDS011;13760;52.588;13.406;2022-11-24T04:27:34;148.70;;;53.72;;
25962;SDS011;13760;52.588;13.406;2022-11-24T04:30:00;135.23;;;52.03;;
25962;SDS011;13760;52.588;13.406;2022-11-24T04:32:26;143.95;;;51.92;;
25962;SDS011;13760;52.588;13.406;2022-11-24T04:34:52;175.35;;;53.55;;
25962;SDS011;13760;52.588;13.406;2022-11-24T04:37:17;142.13;;;51.10;;
25962;SDS011;13760;52.588;13.406;2022-11-24T04:39:43;142.23;;;50.13;;
25962;SDS011;13760;52.588;13.406;2022-11-24T04:42:10;152.30;;;53.85;;
25962;SDS011;13760;52.588;13.406;2022-11-24T04:44:36;179.52;;;53.67;;
25962;SDS011;13760;52.588;13.406;2022-11-24T04:47:01;121.07;;;50.28;;
25962;SDS011;13760;52.588;13.406;2022-11-24T04:49:27;151.20;;;54.60;;
25962;SDS011;13760;52.588;13.406;2022-11-24T04:51:52;137.07;;;49.65;;
25962;SDS011;13760;52.588;13.406;2022-11-24T04:54:18;167.43;;;53.17;;
25962;SDS011;13760;52.588;13.406;2022-11-24T04:56:44;190.20;;;53.05;;
25962;SDS011;13760;52.588;13.406;2022-11-24T04:59:16;140.02;;;49.60;;
25962;SDS011;13760;52.588;13.406;2022-11-24T05:01:43;157.52;;;51.60;;
25962;SDS011;13760;52.588;13.406;2022-11-24T05:04:11;211.10;;;58.45;;
25962;SDS011;13760;52.588;13.406;2022-11-24T05:06:38;198.52;;;53.90;;
25962;SDS011;13760;52.588;13.406;2022-11-24T05:09:04;154.70;;;52.10;;
25962;SDS011;13760;52.588;13.406;2022-11-24T05:11:33;174.20;;;54.17;;
25962;SDS011;13760;52.588;13.406;2022-11-24T05:13:59;168.48;;;52.55;;
25962;SDS011;13760;52.588;13.406;2022-11-24T05:16:24;154.15;;;53.13;;
25962;SDS011;13760;52.588;13.406;2022-11-24T05:18:50;146.18;;;51.85;;
25962;SDS011;13760;52.588;13.406;2022-11-24T05:21:16;133.85;;;50.33;;
25962;SDS011;13760;52.588;13.406;2022-11-24T05:23:53;157.77;;;52.15;;
25962;SDS011;13760;52.588;13.406;2022-11-24T05:26:27;148.15;;;52.05;;
25962;SDS011;13760;52.588;13.406;2022-11-24T05:28:53;140.23;;;49.80;;
25962;SDS011;13760;52.588;13.406;2022-11-24T05:31:18;185.18;;;53.28;;
25962;SDS011;13760;52.588;13.406;2022-11-24T05:33:44;154.50;;;51.30;;
25962;SDS011;13760;52.588;13.406;2022-11-24T05:36:09;184.55;;;52.92;;
25962;SDS011;13760;52.588;13.406;2022-11-24T05:38:58;143.32;;;49.17;;
25962;SDS011;13760;52.588;13.406;2022-11-24T05:41:24;167.98;;;51.28;;
25962;SDS011;13760;52.588;13.406;2022-11-24T05:43:50;148.48;;;50.90;;
25962;SDS011;13760;52.588;13.406;2022-11-24T05:46:15;150.07;;;51.30;;
25962;SDS011;13760;52.588;13.406;2022-11-24T05:48:41;134.18;;;48.28;;
25962;SDS011;13760;52.588;13.406;2022-11-24T05:51:06;140.00;;;50.67;;
25962;SDS011;13760;52.588;13.406;2022-11-24T05:53:32;182.65;;;52.45;;
25962;SDS011;13760;52.588;13.406;2022-11-24T05:56:01;175.70;;;49.75;;
25962;SDS011;13760;52.588;13.406;2022-11-24T05:58:27;140.73;;;50.65;;
25962;SDS011;13760;52.588;13.406;2022-11-24T06:00:53;136.98;;;47.00;;
25962;SDS011;13760;52.588;13.406;2022-11-24T06:03:19;154.73;;;49.00;;
25962;SDS011;13760;52.588;13.406;2022-11-24T06:05:45;142.38;;;48.03;;
25962;SDS011;13760;52.588;13.406;2022-11-24T06:08:11;130.43;;;48.47;;
25962;SDS011;13760;52.588;13.406;2022-11-24T06:10:37;134.40;;;47.08;;
25962;SDS011;13760;52.588;13.406;2022-11-24T06:13:03;131.57;;;46.80;;
25962;SDS011;13760;52.588;13.406;2022-11-24T06:15:32;111.75;;;43.47;;
25962;SDS011;13760;52.588;13.406;2022-11-24T06:17:58;135.00;;;44.53;;
25962;SDS011;13760;52.588;13.406;2022-11-24T06:20:24;117.85;;;45.25;;
25962;SDS011;13760;52.588;13.406;2022-11-24T06:22:50;126.13;;;46.58;;
25962;SDS011;13760;52.588;13.406;2022-11-24T06:25:16;127.00;;;47.05;;
25962;SDS011;13760;52.588;13.406;2022-11-24T06:27:42;118.43;;;44.30;;
25962;SDS011;13760;52.588;13.406;2022-11-24T06:30:08;136.75;;;46.65;;
25962;SDS011;13760;52.588;13.406;2022-11-24T06:32:35;136.20;;;47.17;;
25962;SDS011;13760;52.588;13.406;2022-11-24T06:35:00;136.10;;;45.35;;
25962;SDS011;13760;52.588;13.406;2022-11-24T06:37:26;128.18;;;44.40;;
25962;SDS011;13760;52.588;13.406;2022-11-24T06:39:52;107.78;;;42.63;;
25962;SDS011;13760;52.588;13.406;2022-11-24T06:42:17;136.80;;;44.95;;
25962;SDS011;13760;52.588;13.406;2022-11-24T06:44:44;145.25;;;45.42;;
25962;SDS011;13760;52.588;13.406;2022-11-24T06:47:11;132.25;;;44.92;;
25962;SDS011;13760;52.588;13.406;2022-11-24T06:49:37;158.35;;;44.28;;
25962;SDS011;13760;52.588;13.406;2022-11-24T06:52:03;146.07;;;45.38;;
25962;SDS011;13760;52.588;13.406;2022-11-24T06:54:29;145.30;;;45.95;;
25962;SDS011;13760;52.588;13.406;2022-11-24T06:57:04;150.52;;;44.58;;
25962;SDS011;13760;52.588;13.406;2022-11-24T06:59:29;137.05;;;45.67;;
25962;SDS011;13760;52.588;13.406;2022-11-24T07:01:55;132.55;;;45.95;;
25962;SDS011;13760;52.588;13.406;2022-11-24T07:04:20;139.13;;;45.92;;
25962;SDS011;13760;52.588;13.406;2022-11-24T07:06:46;137.07;;;48.00;;
25962;SDS011;13760;52.588;13.406;2022-11-24T07:09:12;141.25;;;46.03;;
25962;SDS011;13760;52.588;13.406;2022-11-24T07:11:38;149.85;;;46.60;;
25962;SDS011;13760;52.588;13.406;2022-11-24T07:14:04;128.55;;;46.90;;
25962;SDS011;13760;52.588;13.406;2022-11-24T07:16:30;131.00;;;45.00;;
25962;SDS011;13760;52.588;13.406;2022-11-24T07:18:56;124.40;;;44.53;;
25962;SDS011;13760;52.588;13.406;2022-11-24T07:21:22;149.75;;;45.38;;
25962;SDS011;13760;52.588;13.406;2022-11-24T07:23:49;129.32;;;43.55;;
25962;SDS011;13760;52.588;13.406;2022-11-24T07:26:16;127.72;;;44.10;;
25962;SDS011;13760;52.588;13.406;2022-11-24T07:28:42;107.70;;;41.00;;
25962;SDS011;13760;52.588;13.406;2022-11-24T07:31:08;152.18;;;43.42;;
25962;SDS011;13760;52.588;13.406;2022-11-24T07:33:39;137.38;;;44.03;;
25962;SDS011;13760;52.588;13.406;2022-11-24T07:36:05;121.32;;;43.25;;
25962;SDS011;13760;52.588;13.406;2022-11-24T07:38:31;141.48;;;42.53;;
25962;SDS011;13760;52.588;13.406;2022-11-24T07:40:58;108.97;;;41.72;;
25962;SDS011;13760;52.588;13.406;2022-11-24T07:43:29;132.73;;;45.55;;
25962;SDS011;13760;52.588;13.406;2022-11-24T07:45:55;123.85;;;42.40;;
25962;SDS011;13760;52.588;13.406;2022-11-24T07:48:21;131.55;;;45.63;;
25962;SDS011;13760;52.588;13.406;2022-11-24T07:50:47;118.35;;;45.63;;
25962;SDS011;13760;52.588;13.406;2022-11-24T07:53:13;117.72;;;49.22;;
25962;SDS011;13760;52.588;13.406;2022-11-24T07:55:38;137.25;;;49.88;;
25962;SDS011;13760;52.588;13.406;2022-11-24T07:58:04;120.70;;;44.65;;
25962;SDS011;13760;52.588;13.406;2022-11-24T08:00:29;124.18;;;44.45;;
25962;SDS011;13760;52.588;13.406;2022-11-24T08:02:55;116.30;;;44.78;;
25962;SDS011;13760;52.588;13.406;2022-11-24T08:05:20;117.82;;;43.65;;
25962;SDS011;13760;52.588;13.406;2022-11-24T08:07:46;118.68;;;43.17;;
25962;SDS011;13760;52.588;13.406;2022-11-24T08:10:11;119.68;;;44.92;;
25962;SDS011;13760;52.588;13.406;2022-11-24T08:12:37;112.28;;;41.72;;
25962;SDS011;13760;52.588;13.406;2022-11-24T08:15:03;110.90;;;41.90;;
25962;SDS011;13760;52.588;13.406;2022-11-24T08:17:29;106.90;;;42.67;;
25962;SDS011;13760;52.588;13.406;2022-11-24T08:19:54;102.68;;;41.05;;
25962;SDS011;13760;52.588;13.406;2022-11-24T08:22:20;111.75;;;42.65;;
25962;SDS011;13760;52.588;13.406;2022-11-24T08:24:45;110.55;;;43.22;;
25962;SDS011;13760;52.588;13.406;2022-11-24T08:27:16;124.10;;;47.08;;
25962;SDS011;13760;52.588;13.406;2022-11-24T08:29:42;120.22;;;49.13;;
25962;SDS011;13760;52.588;13.406;2022-11-24T08:32:08;113.07;;;43.35;;
25962;SDS011;13760;52.588;13.406;2022-11-24T08:34:34;106.43;;;44.70;;
25962;SDS011;13760;52.588;13.406;2022-11-24T08:37:02;99.85;;;40.45;;
25962;SDS011;13760;52.588;13.406;2022-11-24T08:39:29;110.57;;;42.58;;
25962;SDS011;13760;52.588;13.406;2022-11-24T08:41:54;103.40;;;43.05;;
25962;SDS011;13760;52.588;13.406;2022-11-24T08:44:20;111.32;;;44.33;;
25962;SDS011;13760;52.588;13.406;2022-11-24T08:46:46;108.82;;;41.33;;
25962;SDS011;13760;52.588;13.406;2022-11-24T08:49:11;109.50;;;46.53;;
25962;SDS011;13760;52.588;13.406;2022-11-24T08:51:38;108.22;;;45.75;;
25962;SDS011;13760;52.588;13.406;2022-11-24T08:54:04;111.95;;;45.88;;
25962;SDS011;13760;52.588;13.406;2022-11-24T08:56:31;113.97;;;49.25;;
25962;SDS011;13760;52.588;13.406;2022-11-24T08:58:57;110.97;;;47.35;;
25962;SDS011;13760;52.588;13.406;2022-11-24T09:01:23;103.38;;;43.33;;
25962;SDS011;13760;52.588;13.406;2022-11-24T09:03:50;103.97;;;42.40;;
25962;SDS011;13760;52.588;13.406;2022-11-24T09:06:16;92.75;;;42.03;;
25962;SDS011;13760;52.588;13.406;2022-11-24T09:08:43;98.40;;;41.67;;
25962;SDS011;13760;52.588;13.406;2022-11-24T09:11:09;100.13;;;41.95;;
25962;SDS011;13760;52.588;13.406;2022-11-24T09:13:37;89.03;;;39.42;;
25962;SDS011;13760;52.588;13.406;2022-11-24T09:16:04;98.20;;;42.30;;
25962;SDS011;13760;52.588;13.406;2022-11-24T09:18:38;93.28;;;40.72;;
25962;SDS011;13760;52.588;13.406;2022-11-24T09:21:07;92.22;;;41.17;;
25962;SDS011;13760;52.588;13.406;2022-11-24T09:23:43;94.68;;;39.53;;
25962;SDS011;13760;52.588;13.406;2022-11-24T09:26:15;93.38;;;40.63;;
25962;SDS011;13760;52.588;13.406;2022-11-24T09:28:49;95.22;;;42.08;;
25962;SDS011;13760;52.588;13.406;2022-11-24T09:31:18;94.50;;;44.50;;
25962;SDS011;13760;52.588;13.406;2022-11-24T09:33:44;91.60;;;42.50;;
25962;SDS011;13760;52.588;13.406;2022-11-24T09:36:10;96.05;;;44.10;;
25962;SDS011;13760;52.588;13.406;2022-11-24T09:38:36;97.88;;;42.10;;
25962;SDS011;13760;52.588;13.406;2022-11-24T09:41:04;101.07;;;47.97;;
25962;SDS011;13760;52.588;13.406;2022-11-24T09:43:52;75.60;;;33.33;;
25962;SDS011;13760;52.588;13.406;2022-11-24T09:46:30;97.70;;;44.38;;
25962;SDS011;13760;52.588;13.406;2022-11-24T09:49:32;91.72;;;43.10;;
25962;SDS011;13760;52.588;13.406;2022-11-24T09:52:17;87.93;;;42.33;;
25962;SDS011;13760;52.588;13.406;2022-11-24T09:55:02;91.28;;;42.05;;
25962;SDS011;13760;52.588;13.406;2022-11-24T09:57:35;98.65;;;42.63;;
25962;SDS011;13760;52.588;13.406;2022-11-24T10:00:09;94.65;;;43.08;;
25962;SDS011;13760;52.588;13.406;2022-11-24T10:02:36;89.35;;;42.33;;
25962;SDS011;13760;52.588;13.406;2022-11-24T10:05:02;87.75;;;41.55;;
25962;SDS011;13760;52.588;13.406;2022-11-24T10:07:32;85.95;;;42.10;;
25962;SDS011;13760;52.588;13.406;2022-11-24T10:13:11;86.30;;;42.22;;
25962;SDS011;13760;52.588;13.406;2022-11-24T10:21:27;85.07;;;44.00;;
25962;SDS011;13760;52.588;13.406;2022-11-24T10:24:13;83.78;;;42.83;;
25962;SDS011;13760;52.588;13.406;2022-11-24T10:26:46;86.55;;;42.20;;
25962;SDS011;13760;52.588;13.406;2022-11-24T10:29:33;76.78;;;40.03;;
25962;SDS011;13760;52.588;13.406;2022-11-24T10:32:04;79.97;;;41.08;;
25962;SDS011;13760;52.588;13.406;2022-11-24T10:34:44;71.68;;;39.65;;
25962;SDS011;13760;52.588;13.406;2022-11-24T10:37:13;71.68;;;37.72;;
25962;SDS011;13760;52.588;13.406;2022-11-24T10:39:59;73.60;;;38.60;;
25962;SDS011;13760;52.588;13.406;2022-11-24T10:42:28;71.80;;;38.67;;
25962;SDS011;13760;52.588;13.406;2022-11-24T10:47:28;71.40;;;37.92;;
25962;SDS011;13760;52.588;13.406;2022-11-24T10:50:02;75.47;;;38.55;;
25962;SDS011;13760;52.588;13.406;2022-11-24T10:53:02;68.68;;;37.58;;
25962;SDS011;13760;52.588;13.406;2022-11-24T10:58:20;72.88;;;38.95;;
25962;SDS011;13760;52.588;13.406;2022-11-24T11:00:50;71.35;;;38.65;;
25962;SDS011;13760;52.588;13.406;2022-11-24T11:03:24;72.50;;;38.88;;
25962;SDS011;13760;52.588;13.406;2022-11-24T11:05:52;68.60;;;37.55;;
25962;SDS011;13760;52.588;13.406;2022-11-24T11:08:22;69.07;;;38.15;;
25962;SDS011;13760;52.588;13.406;2022-11-24T11:10:51;65.88;;;38.28;;
25962;SDS011;13760;52.588;13.406;2022-11-24T11:13:52;68.30;;;37.20;;
25962;SDS011;13760;52.588;13.406;2022-11-24T11:22:03;72.75;;;40.15;;
25962;SDS011;13760;52.588;13.406;2022-11-24T11:24:38;71.90;;;38.63;;
25962;SDS011;13760;52.588;13.406;2022-11-24T11:27:20;66.00;;;38.70;;
25962;SDS011;13760;52.588;13.406;2022-11-24T11:29:47;68.95;;;38.20;;
25962;SDS011;13760;52.588;13.406;2022-11-24T11:32:21;65.60;;;36.70;;
25962;SDS011;13760;52.588;13.406;2022-11-24T11:34:48;63.13;;;36.70;;
25962;SDS011;13760;52.588;13.406;2022-11-24T11:37:15;66.05;;;37.03;;
25962;SDS011;13760;52.588;13.406;2022-11-24T11:39:47;68.53;;;38.25;;
25962;SDS011;13760;52.588;13.406;2022-11-24T11:42:23;66.25;;;37.33;;
25962;SDS011;13760;52.588;13.406;2022-11-24T11:50:16;62.10;;;36.93;;
25962;SDS011;13760;52.588;13.406;2022-11-24T11:58:48;62.13;;;36.17;;
25962;SDS011;13760;52.588;13.406;2022-11-24T12:07:42;62.47;;;36.65;;
25962;SDS011;13760;52.588;13.406;2022-11-24T12:10:40;59.67;;;34.17;;
25962;SDS011;13760;52.588;13.406;2022-11-24T12:15:46;59.85;;;35.83;;
25962;SDS011;13760;52.588;13.406;2022-11-24T12:26:47;61.60;;;36.17;;
25962;SDS011;13760;52.588;13.406;2022-11-24T12:32:08;60.55;;;35.30;;
25962;SDS011;13760;52.588;13.406;2022-11-24T12:34:51;58.92;;;34.28;;
25962;SDS011;13760;52.588;13.406;2022-11-24T12:43:10;58.13;;;33.75;;
25962;SDS011;13760;52.588;13.406;2022-11-24T12:48:37;55.60;;;33.95;;
25962;SDS011;13760;52.588;13.406;2022-11-24T12:51:05;63.20;;;34.65;;
25962;SDS011;13760;52.588;13.406;2022-11-24T12:53:45;59.60;;;36.65;;
25962;SDS011;13760;52.588;13.406;2022-11-24T12:56:13;59.78;;;35.95;;
25962;SDS011;13760;52.588;13.406;2022-11-24T13:04:03;56.60;;;35.90;;
25962;SDS011;13760;52.588;13.406;2022-11-24T13:06:34;56.35;;;34.75;;
25962;SDS011;13760;52.588;13.406;2022-11-24T13:09:18;59.13;;;35.83;;
25962;SDS011;13760;52.588;13.406;2022-11-24T13:11:44;59.15;;;34.47;;
25962;SDS011;13760;52.588;13.406;2022-11-24T13:14:22;59.35;;;36.05;;
25962;SDS011;13760;52.588;13.406;2022-11-24T13:17:00;56.88;;;34.00;;
25962;SDS011;13760;52.588;13.406;2022-11-24T13:19:34;57.83;;;35.03;;
25962;SDS011;13760;52.588;13.406;2022-11-24T13:22:02;59.67;;;34.33;;
25962;SDS011;13760;52.588;13.406;2022-11-24T13:24:32;62.13;;;35.60;;
25962;SDS011;13760;52.588;13.406;2022-11-24T13:27:22;63.90;;;36.38;;
25962;SDS011;13760;52.588;13.406;2022-11-24T13:29:51;57.80;;;36.03;;
25962;SDS011;13760;52.588;13.406;2022-11-24T13:37:17;59.28;;;37.42;;
25962;SDS011;13760;52.588;13.406;2022-11-24T13:39:54;63.88;;;37.97;;
25962;SDS011;13760;52.588;13.406;2022-11-24T13:42:21;64.80;;;38.10;;
25962;SDS011;13760;52.588;13.406;2022-11-24T13:45:01;66.72;;;38.75;;
25962;SDS011;13760;52.588;13.406;2022-11-24T13:47:32;60.97;;;37.85;;
25962;SDS011;13760;52.588;13.406;2022-11-24T13:49:57;72.35;;;40.10;;
25962;SDS011;13760;52.588;13.406;2022-11-24T13:52:38;66.45;;;38.97;;
25962;SDS011;13760;52.588;13.406;2022-11-24T13:57:38;68.50;;;40.42;;
25962;SDS011;13760;52.588;13.406;2022-11-24T14:00:19;67.68;;;38.10;;
25962;SDS011;13760;52.588;13.406;2022-11-24T14:02:51;63.92;;;38.60;;
25962;SDS011;13760;52.588;13.406;2022-11-24T14:05:22;61.67;;;36.58;;
25962;SDS011;13760;52.588;13.406;2022-11-24T14:07:53;66.35;;;38.65;;
25962;SDS011;13760;52.588;13.406;2022-11-24T14:10:22;63.80;;;37.05;;
25962;SDS011;13760;52.588;13.406;2022-11-24T14:15:42;65.22;;;37.33;;
25962;SDS011;13760;52.588;13.406;2022-11-24T14:18:20;63.63;;;37.97;;
25962;SDS011;13760;52.588;13.406;2022-11-24T14:20:46;63.63;;;37.67;;
25962;SDS011;13760;52.588;13.406;2022-11-24T14:23:13;69.40;;;39.25;;
25962;SDS011;13760;52.588;13.406;2022-11-24T14:25:45;64.50;;;39.60;;
25962;SDS011;13760;52.588;13.406;2022-11-24T14:28:20;63.60;;;38.35;;
25962;SDS011;13760;52.588;13.406;2022-11-24T14:30:51;61.35;;;38.35;;
25962;SDS011;13760;52.588;13.406;2022-11-24T14:33:41;60.60;;;37.53;;
25962;SDS011;13760;52.588;13.406;2022-11-24T14:36:11;63.08;;;38.08;;
25962;SDS011;13760;52.588;13.406;2022-11-24T14:38:39;63.08;;;38.28;;
25962;SDS011;13760;52.588;13.406;2022-11-24T14:41:24;65.80;;;40.00;;
25962;SDS011;13760;52.588;13.406;2022-11-24T14:44:05;66.65;;;40.20;;
25962;SDS011;13760;52.588;13.406;2022-11-24T14:46:40;67.57;;;40.05;;
25962;SDS011;13760;52.588;13.406;2022-11-24T14:49:06;61.92;;;37.67;;
25962;SDS011;13760;52.588;13.406;2022-11-24T14:51:33;69.88;;;40.28;;
25962;SDS011;13760;52.588;13.406;2022-11-24T14:54:12;69.70;;;41.00;;
25962;SDS011;13760;52.588;13.406;2022-11-24T14:56:43;66.88;;;39.92;;
25962;SDS011;13760;52.588;13.406;2022-11-24T14:59:28;69.40;;;40.28;;
25962;SDS011;13760;52.588;13.406;2022-11-24T15:01:56;68.50;;;42.72;;
25962;SDS011;13760;52.588;13.406;2022-11-24T15:04:27;66.97;;;40.33;;
25962;SDS011;13760;52.588;13.406;2022-11-24T15:07:04;74.43;;;42.90;;
25962;SDS011;13760;52.588;13.406;2022-11-24T15:12:34;68.72;;;41.47;;
25962;SDS011;13760;52.588;13.406;2022-11-24T15:15:15;72.35;;;41.42;;
25962;SDS011;13760;52.588;13.406;2022-11-24T15:17:45;70.05;;;41.72;;
25962;SDS011;13760;52.588;13.406;2022-11-24T15:20:19;73.15;;;42.70;;
25962;SDS011;13760;52.588;13.406;2022-11-24T15:25:49;71.18;;;41.25;;
25962;SDS011;13760;52.588;13.406;2022-11-24T15:28:16;72.20;;;41.47;;
25962;SDS011;13760;52.588;13.406;2022-11-24T15:30:41;70.55;;;42.22;;
25962;SDS011;13760;52.588;13.406;2022-11-24T15:33:15;76.78;;;43.10;;
25962;SDS011;13760;52.588;13.406;2022-11-24T15:35:42;68.47;;;39.92;;
25962;SDS011;13760;52.588;13.406;2022-11-24T15:38:08;73.03;;;41.35;;
25962;SDS011;13760;52.588;13.406;2022-11-24T15:40:35;71.40;;;42.22;;
25962;SDS011;13760;52.588;13.406;2022-11-24T15:45:56;74.10;;;41.90;;